Estación Meteorológica Peña el Pijo (Robertgarden) [ 05/26/19 19:55:16 CEST ]

Fecha Hora Presion(HPa) Temp (°C) Humedad % Rocio (°C) Viento ( m/s) Direccion Lluvia 1Hora(mm) Lluvia 24H(mm) LLuvia Total(mm)
2018-Dec-28 01:01:24 1014.000 -0.8 68 -6.0         160.58
2018-Dec-28 02:10:06 1013.800 -1.7 70 -6.4         160.58
2018-Dec-28 03:04:36 1013.800 -2.6 72 -7.0         160.58
2018-Dec-28 04:01:38 1013.900 -2.4 72 -6.8         160.58
2018-Dec-28 05:01:42 1013.700 -3.1 73 -7.3         160.58
2018-Dec-28 06:01:42 1013.300 -3.2 74 -7.2         160.58
2018-Dec-28 07:01:44 1013.700 -3.6 75 -7.4         160.58
2018-Dec-28 08:01:45 1014.100 -4.1 76 -7.7         160.58
2018-Dec-28 09:01:44 1014.700 -3.6 76 -7.2         160.58
2018-Dec-28 10:01:38 1014.800 1.5 75 -2.5         160.58
2018-Dec-28 11:01:53 1014.500 9.1 54 0.2         160.58
2018-Dec-28 12:01:46 1013.700 11.9 38 -2.1         160.58
2018-Dec-28 13:01:55 1013.100 11.4 40 -1.7 0.1 E     160.58
2018-Dec-28 14:01:49 1012.300 13.3 40 -0.0 2.6 N     160.58
2018-Dec-28 15:01:48 1012.800 12.9 45 1.2         160.58
2018-Dec-28 16:01:52 1012.900 12.1 50 2.0         160.58
2018-Dec-28 17:01:40 1013.400 9.3 59 1.7         160.58
2018-Dec-28 18:01:45 1014.300 7.1 70 2.0         160.58
2018-Dec-28 19:01:50 1014.600 6.7 73 2.2         160.58
2018-Dec-28 20:01:59 1014.800 6.3 75 2.2         160.58
2018-Dec-28 21:01:55 1014.900 6.1 77 2.3         160.58
2018-Dec-28 22:01:43 1015.000 5.7 78 2.1         160.58
2018-Dec-28 23:01:54 1015.200 5.3 79 1.9         160.58

Temperatura Máxima:13°    Temperatura Mínima:-4°
Presión Máxima:1015.200 Hpa    Presión Mínima:1012.300 Hpa


Volver